Terminal Aerodrome Forecast
Issued by NWS

Home | Current Version | Previous Version | Text Only | Print | Product List | Glossary On
Versions: 1 2 3 4 5 6 7 8 9 10 11 12
000
FTAK31 PAFA 260539
TAFAOR
TAF
PAOR 260539Z 2606/2706 30010KT P6SM -RA SCT015 BKN035 OVC050
     FM260900 31008KT 5SM -RA BR SCT010 OVC025
     FM262100 30010KT P6SM VCSH SCT010 BKN025=

USA.gov is the U.S. government's official web portal to all federal, state and local government web resources and services.